Time;durP1;ratioP1;P1;durP2;ratioP2;P2;SDS_P1;SDS_P2;PMS_P1;PMS_P2;Temp;Humidity;BMP_temperature;BMP_pressure;BME280_temperature;BME280_humidity;BME280_pressure;Samples;Min_cycle;Max_cycle;Signal;HPM_P1;HPM_P2
2021/03/17 00:02:23;;;;;;;2.13;1.80;;;9.00;75.10;;;;;;5020939;28;20454;-84
2021/03/17 00:05:08;;;;;;;1.95;1.60;;;9.00;75.10;;;;;;5018681;28;20067;-84
2021/03/17 00:07:53;;;;;;;;;;;9.00;75.20;;;;;;5039277;28;20111;-84
2021/03/17 00:10:39;;;;;;;1.85;1.65;;;8.90;75.10;;;;;;5023687;28;19927;-84
2021/03/17 00:13:26;;;;;;;1.85;1.65;;;9.00;75.00;;;;;;5043645;28;20112;-84
2021/03/17 00:16:10;;;;;;;1.83;1.60;;;8.90;75.10;;;;;;5033279;28;20507;-83
2021/03/17 00:18:55;;;;;;;1.83;1.67;;;8.90;75.20;;;;;;5024195;28;20040;-84
2021/03/17 00:21:39;;;;;;;;;;;8.90;75.20;;;;;;5007324;28;20059;-84
2021/03/17 00:24:24;;;;;;;2.38;1.80;;;8.90;75.20;;;;;;5029337;28;20044;-84
2021/03/17 00:27:09;;;;;;;2.70;2.05;;;8.90;75.10;;;;;;5023044;28;20076;-83
2021/03/17 00:29:53;;;;;;;1.48;1.38;;;8.80;75.20;;;;;;5025482;28;20051;-84
2021/03/17 00:32:37;;;;;;;2.70;1.90;;;8.80;75.20;;;;;;5038007;28;20090;-83
2021/03/17 00:35:23;;;;;;;2.28;1.80;;;8.80;75.20;;;;;;5032248;28;20068;-84
2021/03/17 00:38:08;;;;;;;2.00;1.67;;;8.80;75.30;;;;;;5027691;28;20083;-83
2021/03/17 00:40:52;;;;;;;;;;;8.80;75.30;;;;;;5021992;28;20144;-84
2021/03/17 00:43:37;;;;;;;1.73;1.60;;;8.70;75.20;;;;;;5010311;28;19920;-83
2021/03/17 00:46:21;;;;;;;1.88;1.70;;;8.70;75.00;;;;;;5021546;28;20100;-83
2021/03/17 00:48:52;;;;;;;1.65;1.55;;;8.70;75.20;;;;;;5003263;28;20375;-84
2021/03/17 00:51:26;;;;;;;1.98;1.77;;;8.70;75.30;;;;;;5008097;28;20026;-84
2021/03/17 00:54:10;;;;;;;2.25;1.67;;;8.70;75.30;;;;;;5035400;28;20397;-83
2021/03/17 00:56:40;;;;;;;1.95;1.73;;;8.70;75.30;;;;;;5012178;28;20045;-86
2021/03/17 00:59:06;;;;;;;2.00;1.70;;;8.70;75.30;;;;;;4999779;28;20036;-84
2021/03/17 01:01:32;;;;;;;2.40;1.90;;;8.70;75.30;;;;;;5012278;28;20033;-84
2021/03/17 01:03:58;;;;;;;1.83;1.55;;;8.60;75.30;;;;;;5018402;28;20026;-84
2021/03/17 01:06:24;;;;;;;2.65;1.83;;;8.70;75.30;;;;;;5024891;28;20117;-83
2021/03/17 01:08:49;;;;;;;1.98;1.75;;;8.60;75.30;;;;;;5037489;28;20037;-84
2021/03/17 01:11:15;;;;;;;1.95;1.75;;;8.60;75.30;;;;;;5073455;28;20028;-84
2021/03/17 01:13:41;;;;;;;2.05;1.85;;;8.60;75.30;;;;;;5074177;28;20477;-85
2021/03/17 01:16:07;;;;;;;2.17;1.80;;;8.60;75.30;;;;;;5056261;28;20032;-83
2021/03/17 01:18:33;;;;;;;2.17;1.67;;;8.60;75.30;;;;;;5049222;28;20035;-83
2021/03/17 01:20:59;;;;;;;2.25;1.65;;;8.60;75.30;;;;;;5061006;28;20033;-83
2021/03/17 01:23:25;;;;;;;2.28;1.80;;;8.60;75.30;;;;;;5048644;28;20074;-83
2021/03/17 01:25:51;;;;;;;1.40;1.30;;;8.60;75.30;;;;;;5039731;28;20381;-84
2021/03/17 01:28:16;;;;;;;2.20;1.63;;;8.60;75.30;;;;;;5056268;28;20029;-84
2021/03/17 01:30:46;;;;;;;1.88;1.60;;;8.50;75.30;;;;;;5065774;28;20029;-84
2021/03/17 01:33:13;;;;;;;2.35;1.80;;;8.50;75.30;;;;;;5052733;28;20453;-83
2021/03/17 01:35:41;;;;;;;2.60;2.08;;;8.50;75.30;;;;;;5057712;28;20032;-84
2021/03/17 01:38:07;;;;;;;2.15;1.65;;;8.50;75.30;;;;;;5070203;28;20025;-83
2021/03/17 01:40:36;;;;;;;2.10;1.90;;;8.50;75.30;;;;;;5067967;28;20060;-84
2021/03/17 01:43:03;;;;;;;1.75;1.63;;;8.50;75.30;;;;;;5050539;28;20025;-83
2021/03/17 01:45:29;;;;;;;2.47;1.80;;;8.50;75.40;;;;;;5053651;28;20029;-83
2021/03/17 01:47:54;;;;;;;2.35;1.85;;;8.50;75.30;;;;;;5063420;28;20150;-83
2021/03/17 01:50:26;;;;;;;2.28;2.05;;;8.50;75.40;;;;;;5053503;28;20497;-84
2021/03/17 01:52:54;;;;;;;1.88;1.67;;;8.50;75.40;;;;;;5073075;28;20040;-84
2021/03/17 01:55:21;;;;;;;1.98;1.80;;;8.50;75.40;;;;;;5060896;28;20028;-84
2021/03/17 01:57:48;;;;;;;1.92;1.70;;;8.50;75.40;;;;;;5055336;28;20025;-84
2021/03/17 02:00:17;;;;;;;2.05;1.65;;;8.50;75.40;;;;;;5047026;28;20029;-83
2021/03/17 02:02:54;;;;;;;1.83;1.73;;;8.50;75.40;;;;;;5073782;28;20023;-83
2021/03/17 02:05:50;;;;;;;2.15;1.90;;;8.50;75.40;;;;;;5056486;28;20028;-85
2021/03/17 02:08:32;;;;;;;1.90;1.70;;;8.40;75.40;;;;;;5013344;28;20041;-83
2021/03/17 02:10:58;;;;;;;1.92;1.73;;;8.40;75.40;;;;;;5052341;28;20047;-83
2021/03/17 02:14:08;;;;;;;2.05;1.75;;;8.40;75.40;;;;;;5026364;28;20461;-84
2021/03/17 02:16:57;;;;;;;1.75;1.65;;;8.40;75.60;;;;;;5041838;28;20042;-83
2021/03/17 02:19:35;;;;;;;2.00;1.80;;;8.40;75.40;;;;;;5017417;28;20033;-83
2021/03/17 02:22:26;;;;;;;2.05;1.77;;;8.40;75.50;;;;;;5043344;28;20038;-81
2021/03/17 02:25:00;;;;;;;2.15;1.95;;;8.40;75.60;;;;;;5003386;28;20033;-85
2021/03/17 02:27:58;;;;;;;2.28;1.90;;;8.40;75.50;;;;;;5018024;28;20037;-83
2021/03/17 02:30:33;;;;;;;2.08;1.73;;;8.40;75.60;;;;;;4987573;28;20438;-83
2021/03/17 02:33:36;;;;;;;1.92;1.80;;;8.40;75.60;;;;;;5029468;28;20366;-83
2021/03/17 02:36:14;;;;;;;1.85;1.70;;;8.30;75.60;;;;;;5000081;28;20041;-82
2021/03/17 02:38:45;;;;;;;2.20;1.90;;;8.40;75.50;;;;;;5034151;28;20021;-83
2021/03/17 02:41:17;;;;;;;1.98;1.77;;;8.30;75.50;;;;;;5053981;28;20048;-83
2021/03/17 02:43:46;;;;;;;2.10;1.90;;;8.40;75.60;;;;;;5017655;28;20025;-83
2021/03/17 02:46:15;;;;;;;2.00;1.83;;;8.30;75.60;;;;;;5019089;28;20033;-84
2021/03/17 02:48:48;;;;;;;4.22;2.20;;;8.30;75.60;;;;;;5016935;28;20033;-82
2021/03/17 02:51:23;;;;;;;2.80;2.00;;;8.30;75.60;;;;;;5018624;28;20233;-84
2021/03/17 02:53:51;;;;;;;2.65;1.80;;;8.30;75.60;;;;;;5034221;28;20061;-83
2021/03/17 02:56:18;;;;;;;2.28;1.92;;;8.40;75.70;;;;;;5019282;28;20041;-83
2021/03/17 02:58:48;;;;;;;2.00;1.80;;;8.30;75.60;;;;;;5003399;28;20350;-83
2021/03/17 03:01:17;;;;;;;2.15;1.92;;;8.30;75.60;;;;;;5019234;28;20029;-84
2021/03/17 03:03:47;;;;;;;2.17;1.70;;;8.30;75.60;;;;;;5030057;28;20031;-83
2021/03/17 03:06:13;;;;;;;2.67;2.00;;;8.30;75.60;;;;;;5002492;28;20467;-83
2021/03/17 03:08:42;;;;;;;2.10;1.90;;;8.30;75.60;;;;;;4984287;28;20112;-83
2021/03/17 03:11:10;;;;;;;2.83;2.03;;;8.30;75.70;;;;;;4998239;28;20469;-84
2021/03/17 03:13:37;;;;;;;2.13;1.90;;;8.30;75.60;;;;;;5015899;28;20068;-85
2021/03/17 03:16:05;;;;;;;2.38;1.90;;;8.30;75.60;;;;;;5002730;28;20132;-83
2021/03/17 03:18:33;;;;;;;2.92;2.20;;;8.30;75.60;;;;;;5033697;28;20100;-83
2021/03/17 03:21:00;;;;;;;2.10;1.90;;;8.30;75.60;;;;;;5035384;28;20060;-85
2021/03/17 03:23:28;;;;;;;2.60;2.00;;;8.30;75.60;;;;;;5002804;28;20102;-83
2021/03/17 03:25:54;;;;;;;2.38;2.00;;;8.30;75.60;;;;;;5015589;28;20040;-82
2021/03/17 03:28:21;;;;;;;2.17;1.98;;;8.30;75.60;;;;;;5002280;28;20059;-83
2021/03/17 03:30:50;;;;;;;2.17;1.80;;;8.30;75.70;;;;;;5011742;28;20071;-83
2021/03/17 03:33:21;;;;;;;2.20;1.90;;;8.30;75.70;;;;;;5025934;28;20018;-85
2021/03/17 03:35:48;;;;;;;2.28;2.08;;;8.30;75.70;;;;;;5018948;28;20115;-84
2021/03/17 03:38:14;;;;;;;2.50;2.10;;;8.30;76.30;;;;;;5025262;28;20029;-83
2021/03/17 03:40:41;;;;;;;2.92;2.13;;;8.30;75.70;;;;;;5052107;28;20036;-84
2021/03/17 03:43:08;;;;;;;2.00;1.80;;;8.30;75.70;;;;;;5018071;28;20471;-83
2021/03/17 03:45:35;;;;;;;2.42;2.10;;;8.30;75.70;;;;;;5018704;28;20044;-84
2021/03/17 03:48:03;;;;;;;2.25;2.05;;;8.30;75.70;;;;;;5016656;28;20036;-88
2021/03/17 03:50:31;;;;;;;2.00;1.80;;;8.30;75.70;;;;;;5027778;28;20060;-84
2021/03/17 03:53:13;;;;;;;2.33;1.90;;;8.30;75.70;;;;;;5013341;28;20462;-83
2021/03/17 03:56:01;;;;;;;2.33;2.00;;;8.30;75.80;;;;;;5013463;28;20028;-83
2021/03/17 03:58:28;;;;;;;1.90;1.80;;;8.30;75.80;;;;;;5044818;28;20028;-83
2021/03/17 04:01:06;;;;;;;2.35;2.05;;;8.30;76.30;;;;;;5034894;28;20400;-83
2021/03/17 04:03:36;;;;;;;1.88;1.77;;;8.30;75.80;;;;;;5018853;28;20033;-83
2021/03/17 04:06:03;;;;;;;2.10;1.90;;;8.30;75.70;;;;;;5026392;28;20135;-85
2021/03/17 04:08:30;;;;;;;2.50;2.05;;;8.30;75.80;;;;;;5071089;28;20037;-84
2021/03/17 04:10:59;;;;;;;2.38;1.90;;;8.30;75.80;;;;;;5070599;28;20229;-83
2021/03/17 04:13:29;;;;;;;3.05;2.05;;;8.30;75.80;;;;;;5070850;28;20032;-83
2021/03/17 04:15:57;;;;;;;2.13;1.92;;;8.30;75.80;;;;;;5061434;28;20032;-83
2021/03/17 04:18:27;;;;;;;2.22;2.03;;;8.30;75.80;;;;;;5062168;28;20028;-83
2021/03/17 04:20:56;;;;;;;2.05;1.85;;;8.30;75.80;;;;;;5054632;28;20035;-83
2021/03/17 04:23:25;;;;;;;2.00;1.70;;;8.30;75.80;;;;;;5054510;28;20021;-86
2021/03/17 04:25:53;;;;;;;2.05;1.88;;;8.30;75.80;;;;;;5061995;28;20068;-83
2021/03/17 04:28:22;;;;;;;2.10;1.90;;;8.30;75.80;;;;;;5069862;28;20116;-83
2021/03/17 04:30:48;;;;;;;2.38;1.85;;;8.30;75.80;;;;;;5054432;28;20028;-84
2021/03/17 04:33:16;;;;;;;2.20;2.00;;;8.30;75.80;;;;;;5054378;28;20032;-83
2021/03/17 04:35:43;;;;;;;1.95;1.70;;;8.30;75.80;;;;;;5054295;28;20086;-83
2021/03/17 04:38:10;;;;;;;3.25;1.95;;;8.30;75.80;;;;;;5054300;28;20116;-85
2021/03/17 04:40:37;;;;;;;2.00;1.80;;;8.30;75.80;;;;;;5054435;28;20017;-83
2021/03/17 04:43:04;;;;;;;2.45;2.25;;;8.30;75.80;;;;;;5054631;28;20112;-83
2021/03/17 04:45:31;;;;;;;2.33;1.90;;;8.30;75.80;;;;;;5071155;28;20113;-83
2021/03/17 04:47:59;;;;;;;1.95;1.80;;;8.30;75.80;;;;;;5072392;28;20037;-83
2021/03/17 04:50:27;;;;;;;2.22;1.90;;;8.30;75.80;;;;;;5037620;28;20025;-84
2021/03/17 04:52:53;;;;;;;3.33;1.95;;;8.30;75.80;;;;;;5072474;28;20028;-86
2021/03/17 04:55:19;;;;;;;1.90;1.70;;;8.30;75.80;;;;;;5054423;28;20031;-84
2021/03/17 04:57:47;;;;;;;2.03;1.83;;;8.30;75.80;;;;;;5069981;28;20030;-82
2021/03/17 05:00:16;;;;;;;1.95;1.80;;;8.30;75.80;;;;;;5062023;28;20053;-83
2021/03/17 05:03:04;;;;;;;2.38;2.10;;;8.30;75.80;;;;;;5050588;28;20120;-83
2021/03/17 05:05:32;;;;;;;2.13;1.80;;;8.30;75.90;;;;;;5052850;28;20109;-83
2021/03/17 05:07:58;;;;;;;2.28;1.98;;;8.30;75.80;;;;;;5053257;28;20048;-83
2021/03/17 05:10:26;;;;;;;2.17;1.98;;;8.30;75.80;;;;;;5054369;28;20107;-83
2021/03/17 05:12:53;;;;;;;2.00;1.80;;;8.30;75.90;;;;;;5066532;28;20024;-83
2021/03/17 05:15:21;;;;;;;2.00;1.80;;;8.30;75.90;;;;;;5055584;28;20087;-82
2021/03/17 05:17:49;;;;;;;2.08;1.83;;;8.30;75.90;;;;;;5055872;28;20036;-82
2021/03/17 05:20:18;;;;;;;1.90;1.75;;;8.30;75.90;;;;;;5057255;28;20020;-83
2021/03/17 05:22:46;;;;;;;2.08;1.88;;;8.30;75.90;;;;;;5057498;28;20456;-83
2021/03/17 05:25:13;;;;;;;2.38;2.08;;;8.30;75.80;;;;;;5074402;28;20016;-83
2021/03/17 05:27:39;;;;;;;2.20;1.90;;;8.30;75.90;;;;;;5056663;28;20052;-83
2021/03/17 05:30:10;;;;;;;3.13;1.90;;;8.40;75.90;;;;;;5071091;28;20057;-82
2021/03/17 05:32:39;;;;;;;2.13;1.90;;;8.30;75.90;;;;;;5038841;28;20033;-80
2021/03/17 05:35:08;;;;;;;2.17;1.98;;;8.30;75.90;;;;;;5068671;28;20024;-82
2021/03/17 05:37:34;;;;;;;2.08;1.85;;;8.30;75.90;;;;;;5056190;28;20768;-82
2021/03/17 05:40:02;;;;;;;2.00;1.80;;;8.30;75.90;;;;;;5060823;28;20032;-83
2021/03/17 05:42:28;;;;;;;1.85;1.75;;;8.30;75.90;;;;;;5053917;28;20032;-83
2021/03/17 05:44:55;;;;;;;2.00;1.80;;;8.30;75.90;;;;;;5064767;28;20021;-83
2021/03/17 05:47:23;;;;;;;2.08;1.80;;;8.30;75.90;;;;;;5072440;28;20033;-82
2021/03/17 05:49:49;;;;;;;2.60;1.80;;;8.30;76.00;;;;;;5072679;28;20029;-83
2021/03/17 05:52:16;;;;;;;1.92;1.70;;;8.30;75.90;;;;;;5049355;28;20478;-83
2021/03/17 05:54:43;;;;;;;1.85;1.75;;;8.30;76.00;;;;;;5065977;28;20033;-81
2021/03/17 05:57:11;;;;;;;2.05;1.80;;;8.30;76.00;;;;;;5065806;28;20028;-83
2021/03/17 05:59:37;;;;;;;2.00;1.80;;;8.30;76.00;;;;;;5049060;28;20098;-83
2021/03/17 06:02:03;;;;;;;1.48;1.38;;;8.30;75.90;;;;;;5056925;28;20029;-81
2021/03/17 06:04:30;;;;;;;2.35;1.55;;;8.40;76.60;;;;;;5056877;28;20505;-82
2021/03/17 06:06:57;;;;;;;1.65;1.55;;;8.30;76.00;;;;;;5054701;28;20058;-82
2021/03/17 06:09:27;;;;;;;1.63;1.52;;;8.30;76.00;;;;;;5064272;28;20204;-86
2021/03/17 06:11:54;;;;;;;1.52;1.42;;;8.30;76.00;;;;;;5052791;28;20500;-84
2021/03/17 06:14:22;;;;;;;1.60;1.50;;;8.40;76.00;;;;;;5072520;28;20554;-81
2021/03/17 06:17:04;;;;;;;1.65;1.50;;;8.40;76.00;;;;;;5073690;28;20032;-80
2021/03/17 06:19:32;;;;;;;1.65;1.55;;;8.30;76.10;;;;;;5069860;28;20025;-83
2021/03/17 06:21:59;;;;;;;1.63;1.52;;;8.30;75.90;;;;;;5064622;28;20097;-82
2021/03/17 06:24:27;;;;;;;2.10;1.80;;;8.30;76.00;;;;;;5054545;28;20024;-83
2021/03/17 06:26:54;;;;;;;2.10;1.40;;;8.30;76.00;;;;;;5071553;28;20097;-83
2021/03/17 06:29:20;;;;;;;2.08;1.75;;;8.30;76.00;;;;;;5063236;28;20032;-83
2021/03/17 06:31:49;;;;;;;1.90;1.73;;;8.40;76.00;;;;;;5055023;28;20495;-81
2021/03/17 06:34:15;;;;;;;1.73;1.63;;;8.30;76.00;;;;;;5022823;28;20028;-81
2021/03/17 06:36:52;;;;;;;1.73;1.50;;;8.30;76.00;;;;;;5055871;28;20032;-83
2021/03/17 06:39:20;;;;;;;1.85;1.63;;;8.30;76.10;;;;;;5053239;28;20037;-83
2021/03/17 06:41:49;;;;;;;1.77;1.48;;;8.30;76.00;;;;;;5066702;28;20028;-83
2021/03/17 06:44:26;;;;;;;1.95;1.75;;;8.30;76.00;;;;;;5072428;28;20020;-83
2021/03/17 06:47:12;;;;;;;1.70;1.60;;;8.30;76.00;;;;;;5072213;28;20033;-82
2021/03/17 06:49:38;;;;;;;;;;;8.30;76.10;;;;;;5074167;28;20362;-81
2021/03/17 06:52:27;;;;;;;1.52;1.42;;;8.30;75.90;;;;;;5069453;28;19908;-83
2021/03/17 06:55:11;;;;;;;1.63;1.52;;;8.30;75.90;;;;;;5072549;28;20059;-82
2021/03/17 06:57:42;;;;;;;2.10;1.50;;;8.30;76.10;;;;;;5055472;28;20366;-84
2021/03/17 07:00:21;;;;;;;1.65;1.52;;;8.30;76.00;;;;;;5055618;28;20385;-83
2021/03/17 07:02:52;;;;;;;1.75;1.52;;;8.20;76.20;;;;;;5072467;28;20024;-83
2021/03/17 07:05:18;;;;;;;2.10;1.67;;;8.30;76.10;;;;;;5071336;28;20033;-82
2021/03/17 07:07:50;;;;;;;1.77;1.65;;;8.30;76.10;;;;;;5051774;28;20044;-82
2021/03/17 07:10:36;;;;;;;2.05;1.63;;;8.30;76.20;;;;;;5066532;28;20029;-82
2021/03/17 07:13:04;;;;;;;1.65;1.55;;;8.30;76.20;;;;;;5065767;28;20043;-82
2021/03/17 07:15:31;;;;;;;1.60;1.48;;;8.30;76.10;;;;;;5057633;28;20470;-82
2021/03/17 07:18:20;;;;;;;1.55;1.38;;;8.30;76.10;;;;;;5071603;28;20044;-82
2021/03/17 07:20:49;;;;;;;1.77;1.65;;;8.30;76.20;;;;;;5060169;28;20025;-82
2021/03/17 07:23:23;;;;;;;1.45;1.30;;;8.30;76.10;;;;;;5045362;28;20016;-82
2021/03/17 07:26:09;;;;;;;2.28;1.75;;;8.30;76.10;;;;;;5059662;28;20032;-82
2021/03/17 07:28:47;;;;;;;1.63;1.40;;;8.30;76.20;;;;;;5044474;28;20082;-82
2021/03/17 07:31:18;;;;;;;1.98;1.50;;;8.40;76.20;;;;;;5051857;28;20108;-82
2021/03/17 07:33:44;;;;;;;1.52;1.40;;;8.30;76.10;;;;;;5046381;28;20475;-81
2021/03/17 07:36:11;;;;;;;1.58;1.42;;;8.30;76.10;;;;;;5070323;28;20039;-80
2021/03/17 07:38:37;;;;;;;1.77;1.50;;;8.30;76.10;;;;;;5070878;28;20029;-81
2021/03/17 07:41:03;;;;;;;1.73;1.50;;;8.30;76.10;;;;;;5071415;28;20051;-83
2021/03/17 07:43:31;;;;;;;1.40;1.30;;;8.40;76.20;;;;;;5060200;28;20048;-80
2021/03/17 07:45:59;;;;;;;1.30;1.20;;;8.40;76.20;;;;;;5034444;28;20033;-83
2021/03/17 07:48:27;;;;;;;1.50;1.40;;;8.40;76.20;;;;;;5031781;28;20031;-83
2021/03/17 07:50:53;;;;;;;1.58;1.42;;;8.40;76.20;;;;;;5048176;28;20024;-83
2021/03/17 07:53:23;;;;;;;1.45;1.35;;;8.40;76.20;;;;;;5054915;28;20474;-83
2021/03/17 07:55:50;;;;;;;1.63;1.42;;;8.40;76.20;;;;;;5071588;28;20028;-83
2021/03/17 07:58:16;;;;;;;1.73;1.63;;;8.40;76.10;;;;;;5052559;28;20359;-83
2021/03/17 08:00:43;;;;;;;2.13;1.45;;;8.40;76.10;;;;;;5035075;28;20044;-84
2021/03/17 08:03:12;;;;;;;1.65;1.48;;;8.40;76.10;;;;;;5066023;28;20024;-83
2021/03/17 08:05:39;;;;;;;1.30;1.20;;;8.50;76.20;;;;;;5054615;28;20028;-82
2021/03/17 08:08:10;;;;;;;1.50;1.40;;;8.50;76.10;;;;;;5050664;28;20573;-82
2021/03/17 08:10:37;;;;;;;1.45;1.20;;;8.50;76.10;;;;;;5040259;28;20350;-82
2021/03/17 08:13:04;;;;;;;1.60;1.20;;;8.50;76.10;;;;;;5071473;28;20465;-85
2021/03/17 08:15:31;;;;;;;1.27;1.17;;;8.50;76.10;;;;;;5068424;28;20108;-83
2021/03/17 08:17:57;;;;;;;1.40;1.30;;;8.50;76.10;;;;;;5051438;28;20143;-84
2021/03/17 08:20:28;;;;;;;1.27;1.17;;;8.50;76.00;;;;;;5033234;28;20043;-83
2021/03/17 08:22:58;;;;;;;1.52;1.20;;;8.50;76.00;;;;;;5071439;28;20032;-83
2021/03/17 08:25:42;;;;;;;2.08;1.00;;;8.60;76.10;;;;;;5040446;28;20448;-83
2021/03/17 08:28:21;;;;;;;1.30;1.20;;;8.60;76.20;;;;;;5048231;28;20037;-83
2021/03/17 08:30:52;;;;;;;1.30;1.20;;;8.60;76.10;;;;;;5058195;28;20025;-83
2021/03/17 08:33:33;;;;;;;1.30;1.20;;;8.60;76.00;;;;;;5071171;28;20024;-86
2021/03/17 08:36:15;;;;;;;1.30;1.20;;;8.60;76.10;;;;;;5054105;28;20082;-82
2021/03/17 08:38:53;;;;;;;1.08;1.00;;;8.60;76.10;;;;;;5072081;28;20020;-83
2021/03/17 08:41:55;;;;;;;1.20;1.10;;;8.60;76.10;;;;;;5061131;28;20033;-83
2021/03/17 08:44:23;;;;;;;1.25;1.10;;;8.60;76.10;;;;;;5010627;28;20553;-83
2021/03/17 08:46:51;;;;;;;1.58;1.33;;;8.60;75.90;;;;;;5057586;28;20163;-82
2021/03/17 08:49:36;;;;;;;2.38;1.30;;;8.60;75.90;;;;;;5056338;28;20013;-82
2021/03/17 08:52:03;;;;;;;1.87;1.40;;;8.70;76.10;;;;;;5057836;28;20036;-83
2021/03/17 08:54:37;;;;;;;1.30;1.20;;;8.70;75.90;;;;;;5068378;28;20370;-81
2021/03/17 08:57:03;;;;;;;2.13;1.20;;;8.70;76.00;;;;;;5051594;28;20115;-83
2021/03/17 08:59:52;;;;;;;2.33;1.40;;;8.70;76.00;;;;;;5073707;28;20016;-83
2021/03/17 09:02:19;;;;;;;1.77;1.27;;;8.70;76.00;;;;;;5075545;28;20024;-83
2021/03/17 09:04:49;;;;;;;1.55;1.17;;;8.70;75.80;;;;;;5070061;28;20039;-88
2021/03/17 09:07:15;;;;;;;1.58;1.33;;;8.70;75.80;;;;;;5055648;28;20069;-83
2021/03/17 09:09:51;;;;;;;1.60;1.38;;;8.80;75.90;;;;;;5070115;28;20244;-84
2021/03/17 09:12:37;;;;;;;1.40;1.20;;;8.80;76.00;;;;;;5052789;28;20024;-84
2021/03/17 09:15:12;;;;;;;1.60;1.20;;;8.80;75.90;;;;;;5036821;28;20024;-82
2021/03/17 09:17:57;;;;;;;1.30;1.20;;;8.80;75.80;;;;;;5051588;28;20051;-81
2021/03/17 09:20:52;;;;;;;1.00;1.00;;;8.80;75.80;;;;;;5068116;28;20025;-81
2021/03/17 09:23:22;;;;;;;1.47;1.20;;;8.80;75.70;;;;;;5037012;28;20061;-81
2021/03/17 09:25:50;;;;;;;1.60;1.25;;;8.90;75.80;;;;;;5054005;28;20051;-81
2021/03/17 09:28:23;;;;;;;1.52;1.20;;;8.80;75.80;;;;;;5038721;28;20025;-83
2021/03/17 09:31:05;;;;;;;1.08;1.00;;;8.80;75.80;;;;;;5061524;28;20103;-82
2021/03/17 09:33:37;;;;;;;1.25;1.20;;;8.90;75.80;;;;;;5075455;28;20538;-81
2021/03/17 09:36:04;;;;;;;1.00;1.00;;;8.90;75.80;;;;;;5064476;28;20029;-82
2021/03/17 09:38:33;;;;;;;1.15;1.10;;;8.90;75.80;;;;;;5069908;28;20048;-81
2021/03/17 09:41:08;;;;;;;1.02;1.02;;;8.90;75.80;;;;;;5060643;28;20107;-81
2021/03/17 09:43:38;;;;;;;1.38;1.27;;;8.90;75.90;;;;;;5060093;28;20461;-82
2021/03/17 09:46:32;;;;;;;1.00;1.00;;;8.90;75.80;;;;;;5067114;28;20064;-82
2021/03/17 09:49:01;;;;;;;1.15;1.15;;;8.90;75.90;;;;;;5053977;28;20397;-82
2021/03/17 09:51:40;;;;;;;1.67;1.20;;;9.00;75.80;;;;;;5073942;28;20377;-82
2021/03/17 09:54:09;;;;;;;1.20;1.10;;;9.00;75.90;;;;;;5057502;28;20017;-82
2021/03/17 09:56:38;;;;;;;0.98;0.95;;;9.00;75.80;;;;;;5073975;28;20461;-83
2021/03/17 09:59:17;;;;;;;1.30;1.20;;;9.00;75.80;;;;;;5073501;28;20031;-82
2021/03/17 10:01:54;;;;;;;2.42;1.20;;;9.00;75.90;;;;;;5047028;28;20031;-82
2021/03/17 10:04:32;;;;;;;0.95;0.90;;;9.00;75.90;;;;;;5070940;28;20393;-83
2021/03/17 10:07:00;;;;;;;2.40;1.23;;;9.00;75.90;;;;;;5056510;28;20535;-82
2021/03/17 10:09:28;;;;;;;1.83;1.08;;;9.10;75.80;;;;;;5053354;28;20021;-84
2021/03/17 10:12:07;;;;;;;0.98;0.98;;;9.10;75.80;;;;;;5063955;28;20029;-82
2021/03/17 10:14:39;;;;;;;1.42;1.05;;;9.10;76.60;;;;;;5074535;28;20020;-83
2021/03/17 10:17:07;;;;;;;2.17;1.30;;;9.10;75.80;;;;;;5063970;28;20033;-82
2021/03/17 10:19:34;;;;;;;1.42;1.05;;;9.20;75.90;;;;;;5069289;28;20032;-82
2021/03/17 10:22:01;;;;;;;1.45;1.10;;;9.20;75.90;;;;;;5056217;28;20036;-82
2021/03/17 10:24:37;;;;;;;1.35;1.10;;;9.20;75.80;;;;;;5056384;28;20031;-82
2021/03/17 10:27:05;;;;;;;1.08;1.00;;;9.20;75.80;;;;;;5051580;28;20082;-83
2021/03/17 10:29:31;;;;;;;1.70;1.30;;;9.30;75.80;;;;;;5073499;28;20037;-82
2021/03/17 10:31:57;;;;;;;1.33;1.02;;;9.30;75.70;;;;;;5056268;28;20051;-82
2021/03/17 10:34:27;;;;;;;1.65;1.20;;;9.30;75.60;;;;;;5039933;28;20047;-83
2021/03/17 10:36:57;;;;;;;2.00;1.08;;;9.30;75.70;;;;;;5073285;28;20037;-83
2021/03/17 10:39:36;;;;;;;2.22;1.33;;;9.30;75.60;;;;;;5053090;28;20052;-82
2021/03/17 10:42:03;;;;;;;1.40;1.10;;;9.40;75.70;;;;;;5070000;28;20025;-83
2021/03/17 10:44:31;;;;;;;3.22;1.27;;;9.40;75.60;;;;;;5073435;28;20082;-82
2021/03/17 10:47:08;;;;;;;1.40;1.30;;;9.40;75.60;;;;;;5072746;28;20032;-82
2021/03/17 10:49:44;;;;;;;1.27;1.10;;;9.40;75.60;;;;;;5073901;28;20031;-82
2021/03/17 10:52:10;;;;;;;1.25;1.00;;;9.50;75.60;;;;;;5058569;28;20459;-82
2021/03/17 10:54:41;;;;;;;1.30;1.10;;;9.50;75.50;;;;;;5039498;28;20145;-83
2021/03/17 10:57:08;;;;;;;1.40;1.10;;;9.50;75.50;;;;;;5073664;28;20032;-83
2021/03/17 10:59:37;;;;;;;1.27;1.20;;;9.50;75.40;;;;;;5056274;28;20427;-83
2021/03/17 11:02:23;;;;;;;1.67;1.10;;;9.50;75.40;;;;;;5073813;28;20024;-82
2021/03/17 11:05:09;;;;;;;1.77;1.00;;;9.60;75.50;;;;;;5050712;28;20092;-82
2021/03/17 11:07:50;;;;;;;1.95;1.10;;;9.60;75.40;;;;;;5068563;28;20078;-83
2021/03/17 11:10:31;;;;;;;2.10;1.10;;;9.60;75.30;;;;;;5055738;28;20492;-82
2021/03/17 11:12:58;;;;;;;1.30;1.20;;;9.60;75.20;;;;;;5072255;28;20052;-82
2021/03/17 11:15:29;;;;;;;1.33;1.10;;;9.70;75.10;;;;;;5055536;28;20020;-82
2021/03/17 11:17:56;;;;;;;1.10;1.10;;;9.70;75.10;;;;;;5055386;28;20032;-83
2021/03/17 11:20:23;;;;;;;1.65;1.10;;;9.70;75.00;;;;;;5071446;28;20039;-83
2021/03/17 11:22:49;;;;;;;1.45;1.20;;;9.80;74.90;;;;;;5072568;28;20465;-83
2021/03/17 11:25:15;;;;;;;1.35;1.10;;;9.80;74.90;;;;;;5072011;28;20025;-83
2021/03/17 11:27:42;;;;;;;2.85;1.15;;;9.80;74.90;;;;;;5045527;28;20029;-83
2021/03/17 11:30:11;;;;;;;3.47;1.30;;;9.80;74.90;;;;;;5046898;28;20036;-83
2021/03/17 11:32:37;;;;;;;1.67;1.15;;;9.90;74.90;;;;;;5055663;28;20145;-83
2021/03/17 11:35:07;;;;;;;1.50;1.10;;;9.90;74.90;;;;;;5054504;28;20566;-81
2021/03/17 11:37:33;;;;;;;1.38;1.00;;;9.90;74.90;;;;;;5071276;28;20028;-83
2021/03/17 11:39:59;;;;;;;1.92;1.40;;;9.90;74.80;;;;;;5054405;28;20117;-82
2021/03/17 11:42:25;;;;;;;2.30;1.20;;;10.00;74.90;;;;;;5054455;28;20036;-81
2021/03/17 11:44:50;;;;;;;1.67;1.10;;;10.00;74.90;;;;;;5053473;28;20040;-85
2021/03/17 11:47:16;;;;;;;2.35;1.25;;;10.00;74.90;;;;;;5049415;28;20393;-84
2021/03/17 11:49:42;;;;;;;1.10;1.00;;;10.00;74.90;;;;;;5065614;28;20158;-81
2021/03/17 11:52:08;;;;;;;1.73;1.10;;;10.00;75.00;;;;;;5061425;28;20033;-83
2021/03/17 11:54:37;;;;;;;1.95;1.27;;;10.00;74.90;;;;;;5051002;28;20059;-82
2021/03/17 11:57:03;;;;;;;1.45;1.15;;;10.10;75.00;;;;;;5051316;28;20047;-84
2021/03/17 11:59:29;;;;;;;1.65;1.00;;;10.10;75.00;;;;;;5073109;28;20407;-83
2021/03/17 12:01:55;;;;;;;0.95;0.95;;;10.20;75.00;;;;;;5054723;28;20086;-84
2021/03/17 12:04:20;;;;;;;1.73;1.00;;;10.20;74.90;;;;;;5054934;28;20035;-83
2021/03/17 12:06:46;;;;;;;1.35;1.13;;;10.20;74.90;;;;;;5053039;28;20032;-85
2021/03/17 12:09:12;;;;;;;1.80;1.08;;;10.20;74.90;;;;;;4998448;28;20034;-85
2021/03/17 12:11:41;;;;;;;2.15;1.35;;;10.30;74.90;;;;;;5015237;28;20061;-82
2021/03/17 12:14:07;;;;;;;1.20;1.10;;;10.30;74.90;;;;;;5039072;28;20049;-85
2021/03/17 12:16:34;;;;;;;1.25;1.15;;;10.30;74.90;;;;;;5052983;28;20036;-83
2021/03/17 12:19:00;;;;;;;2.65;1.20;;;10.30;74.90;;;;;;5052043;28;20082;-85
2021/03/17 12:21:26;;;;;;;1.30;1.05;;;10.30;74.80;;;;;;5034452;28;20036;-83
2021/03/17 12:23:52;;;;;;;1.30;1.10;;;10.40;74.90;;;;;;5019117;28;20032;-83
2021/03/17 12:26:20;;;;;;;2.15;1.20;;;10.40;75.40;;;;;;5001824;28;20037;-84
2021/03/17 12:28:46;;;;;;;1.80;1.30;;;10.40;74.80;;;;;;5038738;28;20025;-83
2021/03/17 12:31:12;;;;;;;1.70;1.15;;;10.40;74.80;;;;;;5022918;28;20028;-84
2021/03/17 12:33:38;;;;;;;1.10;1.00;;;10.50;74.80;;;;;;5034935;28;20112;-83
2021/03/17 12:36:04;;;;;;;2.03;1.20;;;10.50;74.80;;;;;;5018778;28;20089;-83
2021/03/17 12:38:30;;;;;;;2.05;1.38;;;10.50;74.80;;;;;;5051297;28;20029;-84
2021/03/17 12:40:56;;;;;;;1.55;1.13;;;10.60;74.90;;;;;;5038584;28;20075;-84
2021/03/17 12:43:22;;;;;;;2.35;1.10;;;10.60;74.90;;;;;;5022104;28;20048;-84
2021/03/17 12:45:49;;;;;;;1.08;0.93;;;10.50;74.70;;;;;;5056508;28;20074;-85
2021/03/17 12:48:15;;;;;;;1.20;1.10;;;10.60;74.80;;;;;;5022175;28;20029;-84
2021/03/17 12:50:41;;;;;;;1.10;1.00;;;10.60;74.80;;;;;;5038669;28;20040;-84
2021/03/17 12:53:08;;;;;;;3.65;1.30;;;10.60;74.70;;;;;;5056051;28;20013;-83
2021/03/17 12:55:34;;;;;;;1.02;1.00;;;10.60;74.70;;;;;;5038352;28;20033;-84
2021/03/17 12:58:00;;;;;;;0.90;0.90;;;10.60;74.70;;;;;;5022540;28;20125;-83
2021/03/17 13:00:28;;;;;;;1.08;1.00;;;10.70;74.70;;;;;;5021960;28;20186;-83
2021/03/17 13:02:53;;;;;;;1.05;1.00;;;10.70;74.80;;;;;;5050391;28;20021;-84
2021/03/17 13:05:20;;;;;;;1.60;1.15;;;10.70;74.80;;;;;;5010496;28;20026;-84
2021/03/17 13:07:46;;;;;;;1.27;0.90;;;10.70;74.70;;;;;;5048453;28;20040;-84
2021/03/17 13:10:15;;;;;;;1.60;1.08;;;10.70;74.70;;;;;;5056129;28;20029;-84
2021/03/17 13:12:42;;;;;;;0.88;0.88;;;10.70;74.70;;;;;;5056823;28;20032;-84
2021/03/17 13:15:09;;;;;;;1.80;1.25;;;10.70;74.70;;;;;;5049143;28;20028;-84
2021/03/17 13:17:35;;;;;;;1.27;1.00;;;10.80;74.70;;;;;;5063332;28;20024;-84
2021/03/17 13:20:01;;;;;;;0.80;0.80;;;10.80;74.70;;;;;;5068278;28;20029;-83